Fville, New York
Current Conditions -  °F | °C
As of 3:54 PM on Friday 19 Dec 2014 (Local Time) from KSYR Reporting Station
Light Snow Light Snow  
Wind Chill: 18°   Ceiling: 1400
Heat Index: 27°   Visibility: 9mi
Dew Point: 23°   Wind: 9mph
Humidity: 85%   Direction: 270°W
Pressure: 30.17"   Gusts: NA
Location:  43.0351°N, 75.9986°W
Report Text: KSYR 192054Z 27008KT 9SM -SN OVC014 M03/M05 A3017 RMK AO2 SLP220 P0000 60000 T10281050 53014
Loading
Personal Weather Stations






























Interactive Weather Map New forecast layout! Learn more

10-Day Weather Forecast

Advertisements
Track Severe Weather on mobile